createdAt,value
2022-11-17T00:01:48.762Z,98000.53
2022-11-17T00:04:15.658Z,98001.69
2022-11-17T00:06:42.188Z,98002.09
2022-11-17T00:09:17.537Z,97995.81
2022-11-17T00:12:04.073Z,97995.69
2022-11-17T00:14:34.675Z,97997.06
2022-11-17T00:17:10.851Z,97986.44
2022-11-17T00:19:56.863Z,97981.72
2022-11-17T00:22:24.344Z,97997.66
2022-11-17T00:24:51.045Z,98000.31
2022-11-17T00:27:18.200Z,97997.13
2022-11-17T00:29:44.766Z,97986.19
2022-11-17T00:32:34.284Z,97979.50
2022-11-17T00:35:10.926Z,97980.00
2022-11-17T00:38:04.305Z,97970.59
2022-11-17T00:40:30.916Z,97978.00
2022-11-17T00:42:57.856Z,97975.25
2022-11-17T00:45:24.385Z,97985.88
2022-11-17T00:47:50.902Z,97985.53
2022-11-17T00:50:18.888Z,97991.47
2022-11-17T00:52:45.440Z,98002.88
2022-11-17T00:55:11.976Z,98000.16
2022-11-17T00:57:38.547Z,97998.59
2022-11-17T01:00:05.620Z,97997.44
2022-11-17T01:02:32.163Z,97992.72
2022-11-17T01:04:58.688Z,97978.97
2022-11-17T01:07:26.058Z,97976.50
2022-11-17T01:09:52.644Z,97975.94
2022-11-17T01:12:19.219Z,97984.03
2022-11-17T01:14:45.744Z,97981.56
2022-11-17T01:17:12.262Z,97978.31
2022-11-17T01:19:38.814Z,97969.19
2022-11-17T01:22:05.337Z,97979.97
2022-11-17T01:24:31.851Z,97985.00
2022-11-17T01:26:58.369Z,97971.75
2022-11-17T01:29:24.881Z,97963.47
2022-11-17T01:31:52.137Z,97960.72
2022-11-17T01:34:19.041Z,97970.53
2022-11-17T01:37:04.352Z,97962.06
2022-11-17T01:39:31.622Z,97954.41
2022-11-17T01:42:02.183Z,97938.44
2022-11-17T01:44:56.697Z,97938.25
2022-11-17T01:47:38.754Z,97935.75
2022-11-17T01:50:20.799Z,97937.88
2022-11-17T01:52:50.670Z,97937.75
2022-11-17T01:55:19.769Z,97942.41
2022-11-17T01:57:51.365Z,97937.75
2022-11-17T02:00:18.246Z,97943.97
2022-11-17T02:02:46.410Z,97937.16
2022-11-17T02:05:18.705Z,97934.31
2022-11-17T02:07:47.278Z,97924.75
2022-11-17T02:10:13.795Z,97921.13
2022-11-17T02:12:41.069Z,97921.88
2022-11-17T02:15:08.261Z,97911.25
2022-11-17T02:17:40.672Z,97901.03
2022-11-17T02:20:12.586Z,97907.94
2022-11-17T02:22:54.338Z,97900.94
2022-11-17T02:25:27.146Z,97899.75
2022-11-17T02:28:29.946Z,97894.19
2022-11-17T02:31:18.146Z,97896.38
2022-11-17T02:33:59.878Z,97882.88
2022-11-17T02:36:55.509Z,97887.09
2022-11-17T02:39:26.318Z,97888.94
2022-11-17T02:42:00.583Z,97885.72
2022-11-17T02:44:55.073Z,97888.75
2022-11-17T02:47:28.829Z,97889.47
2022-11-17T02:50:09.271Z,97897.34
2022-11-17T02:52:36.337Z,97896.28
2022-11-17T02:55:07.370Z,97885.09
2022-11-17T02:57:36.715Z,97881.13
2022-11-17T03:00:17.483Z,97884.88
2022-11-17T03:03:09.459Z,97887.81
2022-11-17T03:05:56.759Z,97904.97
2022-11-17T03:08:41.395Z,97895.91
2022-11-17T03:11:08.809Z,97899.78
2022-11-17T03:13:44.300Z,97901.00
2022-11-17T03:16:30.296Z,97906.09
2022-11-17T03:19:29.392Z,97896.81
2022-11-17T03:22:12.575Z,97895.78
2022-11-17T03:24:50.248Z,97895.13
2022-11-17T03:27:23.971Z,97897.63
2022-11-17T03:29:52.255Z,97885.59
2022-11-17T03:32:19.356Z,97897.31
2022-11-17T03:34:52.044Z,97896.91
2022-11-17T03:37:22.589Z,97891.84
2022-11-17T03:39:53.246Z,97886.63
2022-11-17T03:42:29.737Z,97895.50
2022-11-17T03:45:14.316Z,97892.97
2022-11-17T03:47:42.666Z,97897.34
2022-11-17T03:50:27.852Z,97892.28
2022-11-17T03:52:54.710Z,97887.69
2022-11-17T03:55:27.500Z,97886.56
2022-11-17T03:58:06.490Z,97890.56
2022-11-17T04:00:34.903Z,97891.41
2022-11-17T04:03:02.056Z,97883.59
2022-11-17T04:05:28.602Z,97890.59
2022-11-17T04:07:55.161Z,97885.59
2022-11-17T04:10:25.681Z,97889.97
2022-11-17T04:13:29.141Z,97893.84
2022-11-17T04:15:59.180Z,97900.06
2022-11-17T04:18:27.087Z,97893.00
2022-11-17T04:20:55.991Z,97887.94
2022-11-17T04:23:24.113Z,97887.13
2022-11-17T04:26:12.212Z,97881.66
2022-11-17T04:28:41.748Z,97875.78
2022-11-17T04:31:27.545Z,97894.81
2022-11-17T04:33:59.285Z,97890.50
2022-11-17T04:36:35.757Z,97891.66
2022-11-17T04:39:02.558Z,97885.03
2022-11-17T04:41:48.278Z,97891.31
2022-11-17T04:44:17.175Z,97891.31
2022-11-17T04:46:45.883Z,97897.91
2022-11-17T04:49:13.978Z,97899.09
2022-11-17T04:51:41.328Z,97897.56
2022-11-17T04:54:09.374Z,97903.03
2022-11-17T04:56:36.560Z,97906.09
2022-11-17T04:59:03.784Z,97906.50
2022-11-17T05:01:30.865Z,97897.50
2022-11-17T05:04:02.715Z,97896.69
2022-11-17T05:06:32.159Z,97910.38
2022-11-17T05:09:01.070Z,97906.50
2022-11-17T05:11:47.820Z,97911.09
2022-11-17T05:14:17.046Z,97906.38
2022-11-17T05:17:08.413Z,97909.84
2022-11-17T05:19:40.837Z,97913.59
2022-11-17T05:22:28.598Z,97905.78
2022-11-17T05:24:56.127Z,97906.44
2022-11-17T05:27:23.477Z,97909.13
2022-11-17T05:29:50.458Z,97907.47
2022-11-17T05:32:17.414Z,97905.91
2022-11-17T05:34:43.947Z,97910.97
2022-11-17T05:37:10.501Z,97897.53
2022-11-17T05:39:37.012Z,97897.34
2022-11-17T05:42:03.810Z,97899.31
2022-11-17T05:44:30.387Z,97901.47
2022-11-17T05:46:56.933Z,97897.00
2022-11-17T05:49:24.096Z,97900.03
2022-11-17T05:51:52.892Z,97896.81
2022-11-17T05:54:20.121Z,97906.09
2022-11-17T05:56:56.176Z,97908.34
2022-11-17T05:59:36.209Z,97918.75
2022-11-17T06:02:14.936Z,97913.63
2022-11-17T06:04:41.502Z,97919.94
2022-11-17T06:07:08.351Z,97914.72
2022-11-17T06:09:39.134Z,97918.41
2022-11-17T06:12:06.519Z,97915.25
2022-11-17T06:14:34.509Z,97914.72
2022-11-17T06:17:09.498Z,97916.63
2022-11-17T06:19:44.025Z,97915.75
2022-11-17T06:22:12.505Z,97921.19
2022-11-17T06:24:42.843Z,97916.13
2022-11-17T06:27:11.971Z,97918.56
2022-11-17T06:29:43.859Z,97928.06
2022-11-17T06:32:10.971Z,97917.75
2022-11-17T06:34:37.654Z,97924.44
2022-11-17T06:37:04.170Z,97924.91
2022-11-17T06:39:30.744Z,97929.28
2022-11-17T06:41:57.263Z,97929.38
2022-11-17T06:44:23.788Z,97936.84
2022-11-17T06:46:50.266Z,97925.09
2022-11-17T06:49:16.781Z,97920.34
2022-11-17T06:51:45.339Z,97929.28
2022-11-17T06:54:14.727Z,97929.25
2022-11-17T06:56:42.350Z,97934.31
2022-11-17T06:59:08.929Z,97934.53
2022-11-17T07:01:37.391Z,97937.31
2022-11-17T07:04:04.083Z,97944.16
2022-11-17T07:06:30.818Z,97953.59
2022-11-17T07:08:57.437Z,97946.72
2022-11-17T07:11:23.979Z,97949.19
2022-11-17T07:13:50.562Z,97954.06
2022-11-17T07:16:23.270Z,97954.72
2022-11-17T07:18:50.875Z,97945.25
2022-11-17T07:21:18.079Z,97948.22
2022-11-17T07:23:45.764Z,97957.84
2022-11-17T07:26:12.487Z,97935.63
2022-11-17T07:28:39.239Z,97941.09
2022-11-17T07:31:07.806Z,97929.38
2022-11-17T07:33:34.904Z,97939.59
2022-11-17T07:36:10.268Z,97926.63
2022-11-17T07:38:38.568Z,97928.59
2022-11-17T07:41:06.897Z,97927.88
2022-11-17T07:43:34.376Z,97925.03
2022-11-17T07:46:05.396Z,97925.44
2022-11-17T07:48:33.186Z,97939.63
2022-11-17T07:51:01.443Z,97941.31
2022-11-17T07:53:28.811Z,97939.78
2022-11-17T07:55:55.779Z,97940.59
2022-11-17T07:58:25.345Z,97942.97
2022-11-17T08:00:51.977Z,97933.56
2022-11-17T08:03:18.721Z,97920.66
2022-11-17T08:05:45.424Z,97928.06
2022-11-17T08:08:13.547Z,97919.47
2022-11-17T08:10:40.488Z,97927.38
2022-11-17T08:13:07.748Z,97935.97
2022-11-17T08:15:35.248Z,97939.97
2022-11-17T08:18:01.852Z,97944.72
2022-11-17T08:20:29.425Z,97946.34
2022-11-17T08:22:56.669Z,97943.19
2022-11-17T08:25:25.431Z,97950.59
2022-11-17T08:27:55.429Z,97945.56
2022-11-17T08:30:22.635Z,97950.28
2022-11-17T08:32:52.250Z,97945.56
2022-11-17T08:35:21.272Z,97951.94
2022-11-17T08:37:48.149Z,97936.25
2022-11-17T08:40:16.065Z,97945.63
2022-11-17T08:42:42.583Z,97958.25
2022-11-17T08:45:10.696Z,97953.97
2022-11-17T08:47:37.767Z,97960.25
2022-11-17T08:50:08.055Z,97953.22
2022-11-17T08:52:34.651Z,97949.72
2022-11-17T08:55:02.168Z,97939.50
2022-11-17T08:57:33.763Z,97941.47
2022-11-17T09:00:01.067Z,97950.53
2022-11-17T09:02:27.828Z,97954.81
2022-11-17T09:04:54.376Z,97951.31
2022-11-17T09:07:20.974Z,97942.66
2022-11-17T09:09:48.634Z,97937.56
2022-11-17T09:12:16.279Z,97947.38
2022-11-17T09:14:42.859Z,97940.28
2022-11-17T09:17:09.484Z,97938.75
2022-11-17T09:19:36.167Z,97935.59
2022-11-17T09:22:02.687Z,97929.34
2022-11-17T09:24:29.240Z,97921.84
2022-11-17T09:26:57.524Z,97921.06
2022-11-17T09:29:24.182Z,97914.78
2022-11-17T09:31:50.791Z,97912.41
2022-11-17T09:34:17.615Z,97911.63
2022-11-17T09:36:44.190Z,97913.59
2022-11-17T09:39:10.776Z,97913.59
2022-11-17T09:41:46.886Z,97914.34
2022-11-17T09:44:19.557Z,97914.72
2022-11-17T09:46:53.520Z,97914.31
2022-11-17T09:49:34.975Z,97930.44
2022-11-17T09:52:46.466Z,97932.44
2022-11-17T09:55:53.685Z,97931.59
2022-11-17T09:58:45.998Z,97933.16
2022-11-17T10:01:16.034Z,97928.44
2022-11-17T10:03:46.331Z,97930.44
2022-11-17T10:06:23.669Z,97926.53
2022-11-17T10:08:58.328Z,97921.03
2022-11-17T10:11:31.625Z,97907.31
2022-11-17T10:14:11.538Z,97910.44
2022-11-17T10:16:40.889Z,97917.91
2022-11-17T10:19:14.360Z,97913.59
2022-11-17T10:21:40.930Z,97904.91
2022-11-17T10:24:08.190Z,97901.41
2022-11-17T10:26:47.511Z,97898.66
2022-11-17T10:29:22.431Z,97890.00
2022-11-17T10:31:49.914Z,97888.47
2022-11-17T10:34:41.002Z,97900.63
2022-11-17T10:37:14.189Z,97904.56
2022-11-17T10:39:42.994Z,97909.25
2022-11-17T10:42:27.893Z,97910.84
2022-11-17T10:44:58.326Z,97910.44
2022-11-17T10:47:31.848Z,97918.66
2022-11-17T10:50:22.956Z,97920.59
2022-11-17T10:52:51.374Z,97922.91
2022-11-17T10:55:24.512Z,97913.84
2022-11-17T10:57:58.899Z,97915.00
2022-11-17T11:00:34.842Z,97914.19
2022-11-17T11:03:17.444Z,97913.34
2022-11-17T11:06:23.255Z,97928.72
2022-11-17T11:09:31.263Z,97921.63
2022-11-17T11:12:00.165Z,97909.44
2022-11-17T11:14:51.199Z,97910.22
2022-11-17T11:17:18.422Z,97912.63
2022-11-17T11:19:52.661Z,97912.31
2022-11-17T11:22:42.245Z,97908.00
2022-11-17T11:25:14.545Z,97907.56
2022-11-17T11:27:56.040Z,97907.22
2022-11-17T11:30:22.589Z,97906.41
2022-11-17T11:33:23.086Z,97921.34
2022-11-17T11:36:04.286Z,97928.03
2022-11-17T11:38:48.732Z,97925.66
2022-11-17T11:41:27.939Z,97922.09
2022-11-17T11:44:22.748Z,97923.75
2022-11-17T11:46:58.494Z,97921.78
2022-11-17T11:49:52.616Z,97916.72
2022-11-17T11:52:22.280Z,97921.44
2022-11-17T11:54:59.092Z,97925.38
2022-11-17T11:57:39.216Z,97922.63
2022-11-17T12:00:08.933Z,97934.03
2022-11-17T12:02:48.145Z,97930.91
2022-11-17T12:05:30.311Z,97927.31
2022-11-17T12:08:16.732Z,97945.81
2022-11-17T12:10:54.492Z,97946.59
2022-11-17T12:13:22.576Z,97952.47
2022-11-17T12:15:49.356Z,97959.16
2022-11-17T12:18:18.733Z,97961.53
2022-11-17T12:20:56.015Z,97962.28
2022-11-17T12:23:38.328Z,97961.91
2022-11-17T12:26:05.333Z,97956.41
2022-11-17T12:28:40.474Z,97963.88
2022-11-17T12:31:42.804Z,97967.00
2022-11-17T12:34:31.188Z,97978.72
2022-11-17T12:37:19.802Z,97984.22
2022-11-17T12:40:01.696Z,98003.03
2022-11-17T12:42:34.000Z,97989.69
2022-11-17T12:45:02.494Z,97990.47
2022-11-17T12:47:32.343Z,97990.50
2022-11-17T12:50:17.484Z,97978.72
2022-11-17T12:52:43.970Z,97975.19
2022-11-17T12:55:39.844Z,97975.59
2022-11-17T12:58:10.728Z,97979.56
2022-11-17T13:00:52.900Z,97975.66
2022-11-17T13:03:27.649Z,97971.75
2022-11-17T13:06:34.479Z,97969.75
2022-11-17T13:09:01.720Z,97965.44
2022-11-17T13:11:29.364Z,97950.53
2022-11-17T13:14:14.186Z,97958.75
2022-11-17T13:16:49.813Z,97948.53
2022-11-17T13:19:36.910Z,97938.72
2022-11-17T13:22:16.123Z,97947.72
2022-11-17T13:24:45.054Z,97951.22
2022-11-17T13:27:25.546Z,97941.34
2022-11-17T13:30:11.407Z,97922.13
2022-11-17T13:32:40.059Z,97921.31
2022-11-17T13:35:18.955Z,97923.69
2022-11-17T13:37:45.979Z,97927.22
2022-11-17T13:40:22.234Z,97930.78
2022-11-17T13:42:49.768Z,97927.25
2022-11-17T13:45:16.723Z,97921.75
2022-11-17T13:47:48.957Z,97908.06
2022-11-17T13:50:27.703Z,97889.63
2022-11-17T13:52:56.652Z,97886.09
2022-11-17T13:55:24.653Z,97893.16
2022-11-17T13:58:23.346Z,97889.25
2022-11-17T14:00:54.404Z,97901.81
2022-11-17T14:03:46.579Z,97892.41
2022-11-17T14:06:14.558Z,97904.97
2022-11-17T14:08:43.192Z,97914.38
2022-11-17T14:11:09.645Z,97918.28
2022-11-17T14:13:40.421Z,97916.72
2022-11-17T14:16:23.140Z,97909.66
2022-11-17T14:18:57.265Z,97913.16
2022-11-17T14:21:24.368Z,97921.41
2022-11-17T14:24:01.829Z,97924.59
2022-11-17T14:26:28.929Z,97923.38
2022-11-17T14:28:58.163Z,97915.13
2022-11-17T14:31:24.683Z,97917.06
2022-11-17T14:33:51.371Z,97922.13
2022-11-17T14:36:18.353Z,97928.78
2022-11-17T14:38:45.732Z,97929.94
2022-11-17T14:41:15.850Z,97936.97
2022-11-17T14:43:42.526Z,97948.72
2022-11-17T14:46:24.695Z,97963.56
2022-11-17T14:48:52.523Z,97974.16
2022-11-17T14:51:20.814Z,97972.19
2022-11-17T14:53:48.223Z,97985.97
2022-11-17T14:56:17.821Z,98002.47
2022-11-17T14:58:45.260Z,97999.72
2022-11-17T15:01:15.916Z,97985.63
2022-11-17T15:03:43.176Z,97977.06
2022-11-17T15:06:15.244Z,97977.78
2022-11-17T15:08:45.356Z,97980.16
2022-11-17T15:11:17.762Z,97981.69
2022-11-17T15:13:44.464Z,97980.84
2022-11-17T15:16:12.004Z,97971.03
2022-11-17T15:18:38.602Z,97972.16
2022-11-17T15:21:07.754Z,97993.34
2022-11-17T15:23:38.253Z,97994.50
2022-11-17T15:26:13.552Z,97996.47
2022-11-17T15:28:40.713Z,98011.38
2022-11-17T15:31:15.759Z,98013.72
2022-11-17T15:33:43.765Z,98002.00
2022-11-17T15:36:13.146Z,97995.72
2022-11-17T15:38:40.830Z,98004.34
2022-11-17T15:41:09.758Z,98003.94
2022-11-17T15:43:37.880Z,97997.69
2022-11-17T15:46:07.106Z,98002.81
2022-11-17T15:48:34.870Z,97994.97
2022-11-17T15:51:05.778Z,97982.41
2022-11-17T15:53:34.388Z,97986.34
2022-11-17T15:56:08.373Z,97988.28
2022-11-17T15:58:35.759Z,97987.88
2022-11-17T16:01:16.822Z,97972.94
2022-11-17T16:03:45.341Z,97974.53
2022-11-17T16:06:12.700Z,97978.00
2022-11-17T16:08:39.871Z,97971.72
2022-11-17T16:11:07.198Z,97978.69
2022-11-17T16:13:33.817Z,97980.66
2022-11-17T16:16:00.543Z,97991.22
2022-11-17T16:18:27.253Z,97998.31
2022-11-17T16:20:54.026Z,97994.41
2022-11-17T16:23:20.777Z,97994.81
2022-11-17T16:25:48.724Z,97990.47
2022-11-17T16:28:17.112Z,97991.97
2022-11-17T16:30:43.995Z,97997.06
2022-11-17T16:33:12.619Z,97997.06
2022-11-17T16:35:40.792Z,97989.16
2022-11-17T16:38:08.498Z,97990.63
2022-11-17T16:40:37.820Z,97991.38
2022-11-17T16:43:04.400Z,97992.19
2022-11-17T16:45:31.086Z,97974.16
2022-11-17T16:47:58.835Z,97976.91
2022-11-17T16:50:25.424Z,97987.88
2022-11-17T16:52:51.963Z,97981.22
2022-11-17T16:55:20.526Z,97983.59
2022-11-17T16:57:47.137Z,97992.97
2022-11-17T17:00:15.082Z,97998.41
2022-11-17T17:02:41.782Z,98005.03
2022-11-17T17:05:08.454Z,97996.81
2022-11-17T17:07:35.067Z,97998.44
2022-11-17T17:10:01.866Z,97991.38
2022-11-17T17:12:28.395Z,97997.66
2022-11-17T17:14:55.014Z,97995.34
2022-11-17T17:17:21.556Z,97995.22
2022-11-17T17:19:48.527Z,97992.47
2022-11-17T17:22:15.059Z,97981.13
2022-11-17T17:24:41.737Z,97976.72
2022-11-17T17:27:08.311Z,97968.00
2022-11-17T17:29:34.833Z,97966.75
2022-11-17T17:32:01.393Z,97969.88
2022-11-17T17:34:27.937Z,97961.69
2022-11-17T17:36:54.460Z,97969.78
2022-11-17T17:39:21.092Z,97966.63
2022-11-17T17:41:47.657Z,97960.31
2022-11-17T17:44:19.281Z,97953.28
2022-11-17T17:46:46.908Z,97943.47
2022-11-17T17:49:13.778Z,97935.94
2022-11-17T17:51:44.168Z,97932.41
2022-11-17T17:54:19.974Z,97943.63
2022-11-17T17:56:47.804Z,97932.19
2022-11-17T17:59:15.931Z,97929.38
2022-11-17T18:01:45.772Z,97914.88
2022-11-17T18:04:15.863Z,97917.19
2022-11-17T18:06:47.017Z,97918.81
2022-11-17T18:09:15.509Z,97928.91
2022-11-17T18:11:46.011Z,97945.72
2022-11-17T18:14:13.377Z,97932.03
2022-11-17T18:16:40.309Z,97945.72
2022-11-17T18:19:08.502Z,97950.41
2022-11-17T18:21:35.592Z,97943.31
2022-11-17T18:24:02.771Z,97945.66
2022-11-17T18:26:32.414Z,97945.72
2022-11-17T18:29:01.178Z,97921.50
2022-11-17T18:31:29.855Z,97938.31
2022-11-17T18:33:59.198Z,97920.75
2022-11-17T18:36:26.692Z,97929.78
2022-11-17T18:38:53.584Z,97930.84
2022-11-17T18:41:21.695Z,97921.00
2022-11-17T18:43:48.554Z,97919.53
2022-11-17T18:46:17.860Z,97920.81
2022-11-17T18:48:46.460Z,97919.25
2022-11-17T18:51:20.047Z,97931.38
2022-11-17T18:53:51.821Z,97938.00
2022-11-17T18:56:21.698Z,97938.44
2022-11-17T18:58:48.836Z,97940.72
2022-11-17T19:01:18.416Z,97935.63
2022-11-17T19:03:46.921Z,97937.22
2022-11-17T19:06:14.887Z,97926.28
2022-11-17T19:08:41.691Z,97926.28
2022-11-17T19:11:09.760Z,97929.88
2022-11-17T19:13:38.329Z,97923.22
2022-11-17T19:16:07.004Z,97924.81
2022-11-17T19:18:33.881Z,97927.91
2022-11-17T19:21:09.513Z,97920.47
2022-11-17T19:23:37.810Z,97919.69
2022-11-17T19:26:16.014Z,97919.81
2022-11-17T19:28:43.457Z,97920.88
2022-11-17T19:31:12.679Z,97930.28
2022-11-17T19:33:40.426Z,97923.22
2022-11-17T19:36:10.014Z,97933.34
2022-11-17T19:38:38.606Z,97933.34
2022-11-17T19:41:07.400Z,97922.75
2022-11-17T19:43:34.612Z,97922.34
2022-11-17T19:46:03.151Z,97912.19
2022-11-17T19:48:31.218Z,97927.09
2022-11-17T19:50:58.845Z,97925.88
2022-11-17T19:53:26.144Z,97924.75
2022-11-17T19:55:52.827Z,97921.19
2022-11-17T19:58:20.612Z,97918.50
2022-11-17T20:00:51.335Z,97918.59
2022-11-17T20:03:18.225Z,97912.75
2022-11-17T20:05:45.576Z,97918.59
2022-11-17T20:08:12.177Z,97918.50
2022-11-17T20:10:38.802Z,97916.53
2022-11-17T20:13:05.374Z,97915.69
2022-11-17T20:15:35.221Z,97915.31
2022-11-17T20:18:02.089Z,97920.38
2022-11-17T20:20:28.851Z,97938.09
2022-11-17T20:22:55.655Z,97925.56
2022-11-17T20:25:22.164Z,97923.94
2022-11-17T20:27:48.704Z,97933.72
2022-11-17T20:30:15.736Z,97919.59
2022-11-17T20:32:42.416Z,97924.22
2022-11-17T20:35:09.271Z,97919.09
2022-11-17T20:37:35.831Z,97908.06
2022-11-17T20:40:02.343Z,97906.41
2022-11-17T20:42:28.878Z,97910.69
2022-11-17T20:44:55.387Z,97900.91
2022-11-17T20:47:27.391Z,97905.66
2022-11-17T20:49:54.926Z,97902.84
2022-11-17T20:52:21.502Z,97900.13
2022-11-17T20:54:48.060Z,97899.31
2022-11-17T20:57:14.597Z,97900.06
2022-11-17T20:59:41.168Z,97890.31
2022-11-17T21:02:09.768Z,97898.53
2022-11-17T21:04:36.370Z,97907.06
2022-11-17T21:07:03.147Z,97902.38
2022-11-17T21:09:29.720Z,97899.53
2022-11-17T21:11:56.379Z,97899.00
2022-11-17T21:14:25.847Z,97885.69
2022-11-17T21:16:53.999Z,97879.47
2022-11-17T21:19:21.105Z,97886.09
2022-11-17T21:21:53.438Z,97889.69
2022-11-17T21:24:21.882Z,97895.09
2022-11-17T21:26:51.897Z,97887.28
2022-11-17T21:29:18.637Z,97885.28
2022-11-17T21:31:45.422Z,97881.72
2022-11-17T21:34:15.925Z,97876.63
2022-11-17T21:36:42.733Z,97876.59
2022-11-17T21:39:09.522Z,97876.16
2022-11-17T21:41:37.797Z,97883.13
2022-11-17T21:44:05.020Z,97886.59
2022-11-17T21:46:33.741Z,97879.44
2022-11-17T21:49:00.832Z,97886.75
2022-11-17T21:51:33.165Z,97899.97
2022-11-17T21:54:02.070Z,97899.13
2022-11-17T21:56:29.331Z,97894.38
2022-11-17T21:58:57.936Z,97905.28
2022-11-17T22:01:25.474Z,97903.34
2022-11-17T22:03:52.318Z,97904.72
2022-11-17T22:06:20.609Z,97907.44
2022-11-17T22:08:47.986Z,97908.91
2022-11-17T22:11:36.554Z,97911.25
2022-11-17T22:14:17.037Z,97907.34
2022-11-17T22:16:46.032Z,97909.72
2022-11-17T22:19:14.149Z,97910.47
2022-11-17T22:21:41.495Z,97914.09
2022-11-17T22:24:12.670Z,97910.69
2022-11-17T22:26:41.395Z,97912.78
2022-11-17T22:29:11.831Z,97906.06
2022-11-17T22:31:38.433Z,97909.84
2022-11-17T22:34:05.114Z,97909.78
2022-11-17T22:36:32.163Z,97899.66
2022-11-17T22:38:58.890Z,97906.31
2022-11-17T22:41:26.319Z,97899.75
2022-11-17T22:43:54.863Z,97902.38
2022-11-17T22:46:23.874Z,97902.06
2022-11-17T22:48:50.728Z,97889.88
2022-11-17T22:51:37.779Z,97896.81
2022-11-17T22:54:05.516Z,97892.16
2022-11-17T22:56:32.878Z,97893.09
2022-11-17T22:59:00.061Z,97887.88
2022-11-17T23:01:27.070Z,97894.72
2022-11-17T23:03:53.760Z,97891.16
2022-11-17T23:06:22.493Z,97886.97
2022-11-17T23:08:49.038Z,97889.94
2022-11-17T23:11:35.870Z,97896.28
2022-11-17T23:14:02.374Z,97907.28
2022-11-17T23:16:29.945Z,97910.16
2022-11-17T23:18:57.189Z,97904.75
2022-11-17T23:21:24.137Z,97902.03
2022-11-17T23:23:51.274Z,97897.53
2022-11-17T23:26:18.121Z,97888.34
2022-11-17T23:28:45.188Z,97886.44
2022-11-17T23:31:14.566Z,97886.41
2022-11-17T23:33:43.550Z,97889.59
2022-11-17T23:36:20.984Z,97885.59
2022-11-17T23:38:48.819Z,97874.69
2022-11-17T23:41:17.360Z,97871.94
2022-11-17T23:43:44.001Z,97863.84
2022-11-17T23:46:11.798Z,97866.66
2022-11-17T23:48:38.347Z,97863.97
2022-11-17T23:51:06.374Z,97873.75
2022-11-17T23:53:33.452Z,97874.91
2022-11-17T23:56:01.030Z,97875.66
2022-11-17T23:58:28.479Z,97863.19
